Pope Valley, California
Current Conditions -  °F | °C
As of 10:53 AM on Saturday 25 Oct 2014 (Local Time) from KSTS Reporting Station
Overcast Overcast  
Wind Chill: 66°   Ceiling: 3200
Heat Index: 66°   Visibility: 10mi
Dew Point: 58°   Wind: 12mph
Humidity: 75%   Direction: 210°SSW
Pressure: 29.99"   Gusts: 17mph
Location:  38.62°N, 122.43°W
Report Text: KSTS 251753Z 21010G15KT 10SM SCT024 BKN032 OVC043 19/14 A2999 RMK AO2 SLP149 60002 T01890144 10189 20139 51024
Loading
Personal Weather Stations






























Interactive Weather Map
Tropical Storm Tracking
New forecast layout! Learn more

10-Day Weather Forecast

Advertisements
Track Severe Weather on mobile